Time;durP1;ratioP1;P1;durP2;ratioP2;P2;SDS_P1;SDS_P2;PMS_P1;PMS_P2;Temp;Humidity;BMP_temperature;BMP_pressure;BME280_temperature;BME280_humidity;BME280_pressure;Samples;Min_cycle;Max_cycle;Signal;HPM_P1;HPM_P2
2021/09/23 00:01:18;;;;;;;;;13.50;13.50;;;;;11.89;79.13;101030.31;5174059;27;10670;-72
2021/09/23 00:04:34;;;;;;;;;18.25;16.75;;;;;11.93;79.87;101024.91;5173083;27;10588;-73
2021/09/23 00:07:29;;;;;;;;;15.25;15.00;;;;;11.90;80.08;101018.06;5160631;27;10772;-72
2021/09/23 00:10:28;;;;;;;;;15.75;15.75;;;;;11.91;80.31;101019.69;5173551;27;10678;-72
2021/09/23 00:13:25;;;;;;;;;15.50;14.75;;;;;11.96;79.65;101013.13;5174398;27;10761;-72
2021/09/23 00:16:21;;;;;;;;;17.50;17.50;;;;;11.86;79.66;101010.75;5174521;27;10526;-73
2021/09/23 00:19:18;;;;;;;;;15.50;15.50;;;;;11.87;79.49;101009.59;5160475;27;10795;-72
2021/09/23 00:22:13;;;;;;;;;15.25;15.25;;;;;11.92;80.09;101010.22;5174271;27;10765;-73
2021/09/23 00:25:10;;;;;;;;;17.75;17.75;;;;;12.01;80.25;101007.41;5172729;27;10900;-73
2021/09/23 00:28:07;;;;;;;;;17.00;16.50;;;;;12.00;78.68;101003.03;5174255;27;10745;-73
2021/09/23 00:31:02;;;;;;;;;16.50;16.50;;;;;11.95;79.77;101003.19;5174177;27;10691;-73
2021/09/23 00:33:58;;;;;;;;;12.75;12.75;;;;;12.01;79.92;101001.06;5162359;27;10868;-73
2021/09/23 00:36:53;;;;;;;;;13.25;13.25;;;;;12.02;79.01;100997.16;5139553;27;10716;-73
2021/09/23 00:39:49;;;;;;;;;13.50;13.50;;;;;12.04;78.90;101003.16;5153396;27;10618;-72
2021/09/23 00:42:47;;;;;;;;;14.25;14.25;;;;;12.03;78.70;101004.31;5139547;27;10558;-72
2021/09/23 00:45:43;;;;;;;;;9.50;9.50;;;;;12.01;78.48;100999.09;5153621;27;10537;-73
2021/09/23 00:48:39;;;;;;;;;11.25;11.25;;;;;11.90;78.67;101006.19;5153919;27;10511;-73
2021/09/23 00:51:35;;;;;;;;;15.50;15.50;;;;;12.03;78.97;101001.53;5139646;27;10694;-73
2021/09/23 00:54:31;;;;;;;;;14.75;14.75;;;;;11.91;78.91;101007.81;5152412;27;10593;-73
2021/09/23 00:57:27;;;;;;;;;21.75;19.50;;;;;11.92;78.97;101007.47;5153398;27;10535;-73
2021/09/23 01:00:22;;;;;;;;;18.00;18.00;;;;;11.92;78.87;101006.66;5154210;27;10730;-72
2021/09/23 01:03:18;;;;;;;;;14.75;14.75;;;;;11.92;79.47;101007.47;5158804;27;10683;-73
2021/09/23 01:06:14;;;;;;;;;11.25;11.25;;;;;12.02;79.57;101008.22;5174133;27;11044;-72
2021/09/23 01:09:09;;;;;;;;;11.00;11.00;;;;;11.92;80.38;101001.91;5160079;27;10655;-72
2021/09/23 01:12:06;;;;;;;;;11.75;11.75;;;;;11.85;80.10;101012.69;5173992;27;10435;-72
2021/09/23 01:15:02;;;;;;;;;14.00;14.00;;;;;11.76;80.04;101011.91;5177544;27;10463;-72
2021/09/23 01:17:57;;;;;;;;;13.25;13.25;;;;;11.72;80.15;101004.56;5176930;27;10553;-72
2021/09/23 01:20:53;;;;;;;;;14.00;14.00;;;;;11.76;80.85;101003.59;5163608;27;10601;-72
2021/09/23 01:23:48;;;;;;;;;11.25;11.25;;;;;11.76;81.11;101006.34;5177094;27;10365;-72
2021/09/23 01:26:48;;;;;;;;;11.00;11.00;;;;;11.50;82.56;101008.38;5172418;27;10654;-72
2021/09/23 01:29:43;;;;;;;;;16.75;14.25;;;;;11.50;83.20;101000.91;5163634;27;10518;-72
2021/09/23 01:32:39;;;;;;;;;10.00;10.00;;;;;11.46;82.88;101011.00;5163198;27;10605;-72
2021/09/23 01:35:35;;;;;;;;;7.00;7.00;;;;;11.64;82.28;101001.50;5157255;27;10659;-72
2021/09/23 01:38:30;;;;;;;;;11.00;11.00;;;;;11.65;83.22;101013.38;5156586;27;10802;-73
2021/09/23 01:41:26;;;;;;;;;14.75;14.00;;;;;11.70;83.02;100996.59;5142493;27;10926;-73
2021/09/23 01:44:22;;;;;;;;;10.75;10.75;;;;;11.83;82.79;101000.34;5155393;27;10813;-72
2021/09/23 01:47:17;;;;;;;;;10.50;9.75;;;;;11.85;82.60;100996.06;5142416;27;10717;-73
2021/09/23 01:50:16;;;;;;;;;19.75;19.75;;;;;11.81;81.31;101000.66;5143031;27;10916;-72
2021/09/23 01:53:12;;;;;;;;;26.00;26.00;;;;;11.73;80.21;100992.34;5142336;27;11728;-72
2021/09/23 01:56:07;;;;;;;;;20.00;19.75;;;;;11.79;79.71;100994.59;5142595;27;11067;-73
2021/09/23 01:59:03;;;;;;;;;24.50;22.75;;;;;11.77;79.10;101001.63;5155980;27;11058;-72
2021/09/23 02:01:59;;;;;;;;;22.00;20.00;;;;;11.85;78.81;100995.25;5155884;27;11004;-73
2021/09/23 02:04:54;;;;;;;;;20.50;19.25;;;;;11.89;79.04;100993.47;5156216;27;10749;-72
2021/09/23 02:07:50;;;;;;;;;16.00;15.75;;;;;11.89;78.10;100990.69;5155862;27;10955;-73
2021/09/23 02:10:45;;;;;;;;;18.00;18.00;;;;;11.92;78.31;100998.34;5156564;27;10951;-73
2021/09/23 02:13:41;;;;;;;;;20.75;20.75;;;;;11.91;78.07;100996.72;5155726;27;10906;-73
2021/09/23 02:16:37;;;;;;;;;12.25;12.00;;;;;11.75;79.28;100987.28;5141840;27;10720;-73
2021/09/23 02:19:32;;;;;;;;;17.00;17.00;;;;;11.88;78.67;100984.31;5142845;27;10652;-72
2021/09/23 02:22:28;;;;;;;;;17.75;16.75;;;;;11.91;78.73;100986.44;5176524;27;10825;-73
2021/09/23 02:25:23;;;;;;;;;15.00;15.00;;;;;11.90;79.11;100986.78;5162507;27;10823;-72
2021/09/23 02:28:19;;;;;;;;;15.00;15.00;;;;;11.91;78.73;100989.22;5161933;27;10791;-73
2021/09/23 02:31:16;;;;;;;;;15.50;15.50;;;;;11.92;78.22;100985.28;5176280;27;10585;-72
2021/09/23 02:34:13;;;;;;;;;11.00;11.00;;;;;12.00;78.35;100999.44;5176232;27;10788;-72
2021/09/23 02:37:08;;;;;;;;;12.00;12.00;;;;;11.93;77.99;100998.00;5176177;27;10657;-72
2021/09/23 02:40:07;;;;;;;;;10.00;10.00;;;;;11.83;78.11;100997.56;5175637;27;10518;-72
2021/09/23 02:43:02;;;;;;;;;13.25;13.25;;;;;11.93;78.23;101002.72;5173021;27;10445;-72
2021/09/23 02:45:58;;;;;;;;;15.00;15.00;;;;;11.93;78.42;100992.44;5176098;27;10667;-72
2021/09/23 02:48:54;;;;;;;;;9.75;9.00;;;;;11.91;78.78;100996.72;5175997;27;10516;-73
2021/09/23 02:51:49;;;;;;;;;14.00;14.00;;;;;11.89;78.73;100999.81;5172897;27;10593;-73
2021/09/23 02:54:45;;;;;;;;;14.75;14.75;;;;;11.87;78.58;101006.81;5168203;27;10722;-73
2021/09/23 02:57:40;;;;;;;;;13.75;13.75;;;;;11.86;78.52;101000.47;5175941;27;10452;-73
2021/09/23 03:00:36;;;;;;;;;18.00;17.50;;;;;11.87;78.55;100996.53;5175594;27;10818;-73
2021/09/23 03:03:31;;;;;;;;;16.25;16.25;;;;;11.76;79.17;100994.47;5175724;27;11002;-73
2021/09/23 03:06:27;;;;;;;;;11.50;11.50;;;;;11.79;78.85;100999.31;5162547;27;10668;-73
2021/09/23 03:09:23;;;;;;;;;10.25;10.25;;;;;11.75;79.17;100999.19;5157857;27;10703;-73
2021/09/23 03:12:19;;;;;;;;;15.25;15.25;;;;;11.77;78.78;100994.13;5154642;27;10627;-72
2021/09/23 03:15:15;;;;;;;;;14.00;14.00;;;;;11.81;79.17;100997.91;5154607;27;11514;-73
2021/09/23 03:18:11;;;;;;;;;14.75;14.75;;;;;11.86;79.30;100994.13;5166934;27;10655;-72
2021/09/23 03:21:06;;;;;;;;;12.75;12.75;;;;;11.90;78.97;100989.56;5161310;27;10834;-73
2021/09/23 03:24:02;;;;;;;;;14.75;14.75;;;;;11.90;79.01;100995.09;5174950;27;10738;-73
2021/09/23 03:26:57;;;;;;;;;13.75;13.75;;;;;11.85;79.34;100995.25;5173617;27;10729;-72
2021/09/23 03:29:53;;;;;;;;;16.00;16.00;;;;;11.82;79.16;100993.16;5159551;27;10451;-72
2021/09/23 03:32:48;;;;;;;;;16.00;16.00;;;;;11.93;79.39;100994.41;5154527;27;10670;-73
2021/09/23 03:35:44;;;;;;;;;14.50;14.50;;;;;11.86;79.62;100991.34;5139774;27;10940;-73
2021/09/23 03:38:41;;;;;;;;;9.25;9.25;;;;;11.81;79.94;100997.91;5140371;27;11272;-73
2021/09/23 03:41:36;;;;;;;;;15.25;15.25;;;;;11.80;80.05;100999.03;5149050;27;10751;-73
2021/09/23 03:44:32;;;;;;;;;19.50;19.25;;;;;11.82;79.81;100998.72;5174909;27;10741;-73
2021/09/23 03:47:28;;;;;;;;;14.50;14.50;;;;;11.85;79.95;101004.38;5153709;27;10744;-72
2021/09/23 03:50:23;;;;;;;;;15.25;15.25;;;;;11.73;80.27;101001.50;5164223;27;11540;-73
2021/09/23 03:53:19;;;;;;;;;17.25;17.25;;;;;11.70;80.15;101000.16;5159692;27;10778;-73
2021/09/23 03:56:30;;;;;;;;;16.50;16.50;;;;;11.74;80.33;101005.88;5173935;27;10650;-73
2021/09/23 03:59:25;;;;;;;;;13.50;13.50;;;;;11.80;79.93;101001.78;5174699;27;10888;-73
2021/09/23 04:02:21;;;;;;;;;10.75;10.75;;;;;11.81;79.91;101008.97;5173884;27;10831;-72
2021/09/23 04:05:17;;;;;;;;;16.00;16.00;;;;;11.76;80.57;101005.53;5154790;27;11570;-73
2021/09/23 04:08:12;;;;;;;;;19.75;19.75;;;;;11.84;79.49;101013.84;5153680;27;10831;-73
2021/09/23 04:11:08;;;;;;;;;15.00;15.00;;;;;11.87;79.46;101012.38;5162241;27;11130;-73
2021/09/23 04:14:05;;;;;;;;;16.50;16.50;;;;;11.83;80.04;101012.22;5160500;27;10780;-72
2021/09/23 04:17:00;;;;;;;;;16.25;15.00;;;;;11.86;80.54;101013.50;5173734;27;10859;-73
2021/09/23 04:19:56;;;;;;;;;14.50;14.50;;;;;11.86;80.98;101013.50;5155523;27;10754;-73
2021/09/23 04:22:52;;;;;;;;;16.25;16.25;;;;;11.79;81.52;101015.94;5160691;27;10727;-72
2021/09/23 04:25:47;;;;;;;;;18.00;17.75;;;;;11.69;81.32;101011.59;5171894;27;10671;-73
2021/09/23 04:28:43;;;;;;;;;15.75;15.75;;;;;11.82;81.08;101007.03;5168497;27;10674;-78
2021/09/23 04:31:38;;;;;;;;;15.50;15.50;;;;;11.80;81.09;101018.41;5139672;27;10744;-77
2021/09/23 04:34:35;;;;;;;;;14.75;14.75;;;;;11.76;81.22;101016.63;5139969;27;10591;-77
2021/09/23 04:37:31;;;;;;;;;20.25;20.25;;;;;11.87;81.47;101018.72;5153543;27;10709;-77
2021/09/23 04:40:27;;;;;;;;;15.50;15.50;;;;;11.90;80.70;101018.06;5153533;27;10978;-77
2021/09/23 04:43:22;;;;;;;;;17.00;16.50;;;;;11.92;80.97;101024.09;5153245;27;10988;-77
2021/09/23 04:46:21;;;;;;;;;20.50;20.50;;;;;11.89;81.30;101027.53;5139703;27;11039;-76
2021/09/23 04:49:16;;;;;;;;;19.00;17.50;;;;;11.95;81.29;101028.16;5143458;27;10911;-77
2021/09/23 04:52:12;;;;;;;;;20.00;20.00;;;;;11.96;81.34;101024.22;5143492;27;10788;-76
2021/09/23 04:55:08;;;;;;;;;16.75;15.25;;;;;12.00;81.48;101024.41;5157242;27;10688;-76
2021/09/23 04:58:04;;;;;;;;;17.75;17.75;;;;;12.07;81.65;101022.72;5156517;27;10957;-77
2021/09/23 05:01:00;;;;;;;;;23.25;22.00;;;;;11.92;81.63;101023.28;5160620;27;10856;-77
2021/09/23 05:03:56;;;;;;;;;18.00;18.00;;;;;11.95;81.98;101019.84;5162843;27;10773;-76
2021/09/23 05:06:54;;;;;;;;;20.00;20.00;;;;;11.99;82.29;101020.81;5156931;27;10905;-77
2021/09/23 05:09:51;;;;;;;;;19.00;19.00;;;;;12.07;82.36;101027.47;5142994;27;10819;-77
2021/09/23 05:12:46;;;;;;;;;22.25;21.25;;;;;12.00;81.93;101027.16;5157315;27;10679;-77
2021/09/23 05:15:42;;;;;;;;;21.00;19.25;;;;;11.98;82.05;101026.69;5156788;27;10838;-77
2021/09/23 05:18:38;;;;;;;;;18.25;18.25;;;;;12.04;82.14;101023.41;5156992;27;10974;-75
2021/09/23 05:21:33;;;;;;;;;16.75;16.75;;;;;12.32;83.10;101017.38;5156604;27;10864;-75
2021/09/23 05:24:29;;;;;;;;;19.50;19.50;;;;;12.39;82.20;101028.75;5143134;27;10802;-75
2021/09/23 05:27:25;;;;;;;;;22.00;22.00;;;;;12.32;81.50;101032.06;5161783;27;10963;-75
2021/09/23 05:30:21;;;;;;;;;18.75;18.75;;;;;12.34;81.71;101035.31;5155513;27;11102;-75
2021/09/23 05:33:16;;;;;;;;;21.00;20.75;;;;;12.53;81.34;101035.69;5142687;27;11033;-76
2021/09/23 05:36:12;;;;;;;;;20.50;20.25;;;;;12.81;82.11;101024.09;5156953;27;10672;-76
2021/09/23 05:39:09;;;;;;;;;22.00;19.00;;;;;13.03;82.97;101023.78;5156491;27;10745;-77
2021/09/23 05:42:05;;;;;;;;;23.25;23.00;;;;;12.96;80.25;101029.06;5154220;27;10694;-74
2021/09/23 05:45:02;;;;;;;;;20.75;20.75;;;;;12.53;79.48;101034.88;5177919;27;10703;-73
2021/09/23 05:47:57;;;;;;;;;22.00;22.00;;;;;12.64;79.79;101040.84;5177014;27;10721;-73
2021/09/23 05:50:53;;;;;;;;;25.50;24.25;;;;;12.66;80.06;101042.16;5147422;27;10859;-73
2021/09/23 05:53:49;;;;;;;;;22.00;20.50;;;;;12.67;80.18;101045.75;5156121;27;10859;-73
2021/09/23 05:56:44;;;;;;;;;30.75;28.50;;;;;12.91;80.46;101045.91;5157472;27;10834;-73
2021/09/23 05:59:40;;;;;;;;;29.25;29.00;;;;;12.80;79.36;101039.94;5166562;27;11004;-73
2021/09/23 06:02:36;;;;;;;;;34.75;32.00;;;;;12.80;79.75;101036.31;5174613;27;10778;-73
2021/09/23 06:05:31;;;;;;;;;35.75;35.25;;;;;12.69;79.33;101049.00;5142893;27;11037;-74
2021/09/23 06:08:27;;;;;;;;;46.25;41.00;;;;;12.92;79.80;101039.19;5141733;27;11128;-73
2021/09/23 06:11:23;;;;;;;;;47.25;41.25;;;;;12.84;78.80;101036.47;5161221;27;11415;-73
2021/09/23 06:14:18;;;;;;;;;47.25;39.75;;;;;12.80;78.25;101028.00;5162297;27;12216;-73
2021/09/23 06:17:14;;;;;;;;;45.00;40.00;;;;;12.86;79.32;101034.19;5168411;27;12188;-73
2021/09/23 06:20:10;;;;;;;;;41.00;37.75;;;;;12.96;79.12;101033.78;5175354;27;11457;-73
2021/09/23 06:23:05;;;;;;;;;58.75;47.25;;;;;12.82;78.35;101030.47;5176281;27;11408;-74
2021/09/23 06:26:01;;;;;;;;;51.75;44.00;;;;;12.96;78.61;101036.56;5157097;27;12184;-73
2021/09/23 06:28:57;;;;;;;;;47.75;41.25;;;;;13.21;78.81;101029.19;5161624;27;11433;-73
2021/09/23 06:31:54;;;;;;;;;42.50;38.50;;;;;13.03;78.27;101034.88;5161796;27;11429;-74
2021/09/23 06:34:49;;;;;;;;;31.75;31.75;;;;;12.97;78.18;101033.44;5174226;27;12207;-74
2021/09/23 06:37:46;;;;;;;;;48.50;37.75;;;;;13.19;79.35;101037.00;5166357;27;11110;-74
2021/09/23 06:40:41;;;;;;;;;35.50;34.50;;;;;12.86;77.55;101040.53;5172428;27;11354;-73
2021/09/23 06:43:38;;;;;;;;;42.25;38.25;;;;;12.94;78.38;101034.09;5158314;27;11079;-74
2021/09/23 06:46:34;;;;;;;;;28.50;28.50;;;;;12.91;78.47;101037.56;5161738;27;11493;-74
2021/09/23 06:49:30;;;;;;;;;36.75;34.25;;;;;12.76;77.73;101038.16;5159510;27;11092;-74
2021/09/23 06:52:26;;;;;;;;;34.00;33.75;;;;;12.73;78.44;101039.66;5172063;27;11084;-73
2021/09/23 06:55:21;;;;;;;;;38.25;35.50;;;;;12.70;79.19;101036.75;5160584;27;11917;-73
2021/09/23 06:58:17;;;;;;;;;33.75;32.50;;;;;12.73;79.05;101045.22;5170490;27;11090;-74
2021/09/23 07:01:13;;;;;;;;;35.75;33.50;;;;;12.79;79.61;101034.72;5154576;27;11081;-74
2021/09/23 07:04:08;;;;;;;;;41.00;36.50;;;;;12.73;78.34;101047.19;5162210;27;11858;-74
2021/09/23 07:07:04;;;;;;;;;41.00;38.00;;;;;12.58;78.82;101047.78;5163831;27;11253;-75
2021/09/23 07:10:01;;;;;;;;;47.25;40.25;;;;;12.64;79.14;101041.66;5174274;27;11145;-74
2021/09/23 07:12:56;;;;;;;;;38.25;37.00;;;;;12.64;79.11;101044.44;5160522;27;11244;-73
2021/09/23 07:15:52;;;;;;;;;43.50;39.00;;;;;12.69;78.33;101040.66;5159191;27;11227;-74
2021/09/23 07:18:48;;;;;;;;;45.25;39.75;;;;;12.81;79.05;101037.97;5155358;27;11340;-73
2021/09/23 07:21:43;;;;;;;;;42.25;38.75;;;;;12.85;79.61;101033.38;5154725;27;11582;-74
2021/09/23 07:24:39;;;;;;;;;43.50;38.50;;;;;12.82;78.45;101028.50;5165397;27;11186;-74
2021/09/23 07:27:34;;;;;;;;;41.50;37.50;;;;;12.87;77.49;101027.47;5166653;27;11246;-74
2021/09/23 07:30:30;;;;;;;;;42.00;36.50;;;;;12.85;75.72;101025.03;5168008;27;11430;-74
2021/09/23 07:33:26;;;;;;;;;47.25;40.00;;;;;12.95;75.90;101018.25;5165668;27;11144;-75
2021/09/23 07:36:22;;;;;;;;;51.25;42.50;;;;;12.84;76.20;101026.19;5162382;27;11477;-75
2021/09/23 07:39:19;;;;;;;;;49.75;41.25;;;;;12.96;76.74;101026.28;5154145;27;11536;-75
2021/09/23 07:42:18;;;;;;;;;43.25;37.25;;;;;13.11;75.77;101024.00;5153738;27;11278;-75
2021/09/23 07:45:15;;;;;;;;;42.25;38.25;;;;;13.11;75.17;101024.81;5167897;27;11422;-75
2021/09/23 07:48:10;;;;;;;;;45.25;39.25;;;;;12.89;76.63;101020.44;5154367;27;11465;-76
2021/09/23 07:51:06;;;;;;;;;51.25;45.00;;;;;13.04;75.76;101011.50;5153929;27;11145;-75
2021/09/23 07:54:02;;;;;;;;;44.75;40.00;;;;;13.19;77.86;101010.06;5150704;27;11422;-72
2021/09/23 07:56:58;;;;;;;;;32.50;32.50;;;;;13.43;76.39;101011.34;5174725;27;12211;-74
2021/09/23 07:59:53;;;;;;;;;33.00;31.75;;;;;13.49;75.50;101007.19;5148779;27;10924;-74
2021/09/23 08:02:49;;;;;;;;;50.00;42.00;;;;;13.48;75.65;101008.34;5143802;27;11433;-75
2021/09/23 08:05:45;;;;;;;;;51.25;42.00;;;;;13.74;74.29;101005.28;5172510;27;11253;-75
2021/09/23 08:08:40;;;;;;;;;19.25;19.25;;;;;13.82;74.52;100996.03;5151716;27;11086;-74
2021/09/23 08:11:36;;;;;;;;;53.50;43.75;;;;;14.10;74.24;101002.53;5153594;27;10763;-74
2021/09/23 08:14:31;;;;;;;;;56.00;47.50;;;;;14.31;72.96;100982.13;5153453;27;11502;-74
2021/09/23 08:17:27;;;;;;;;;47.75;39.75;;;;;14.34;73.30;100993.41;5153225;27;11454;-74
2021/09/23 08:20:23;;;;;;;;;49.50;40.50;;;;;14.30;70.54;100986.09;5158539;27;10911;-75
2021/09/23 08:23:19;;;;;;;;;47.25;40.25;;;;;14.16;71.17;100994.78;5176981;27;11542;-74
2021/09/23 08:26:15;;;;;;;;;33.25;32.25;;;;;14.33;71.06;100997.31;5164726;27;10766;-73
2021/09/23 08:29:10;;;;;;;;;39.50;36.50;;;;;14.20;70.07;100992.94;5178240;27;10548;-74
2021/09/23 08:32:06;;;;;;;;;39.50;37.00;;;;;14.43;71.60;100991.28;5164734;27;10591;-74
2021/09/23 08:35:05;;;;;;;;;44.75;36.50;;;;;14.49;71.20;100991.88;5155076;27;10782;-74
2021/09/23 08:38:01;;;;;;;;;39.00;35.75;;;;;14.55;71.64;100990.47;5163619;27;11437;-75
2021/09/23 08:40:57;;;;;;;;;40.75;37.75;;;;;14.57;71.44;100990.13;5150985;27;10771;-75
2021/09/23 08:43:54;;;;;;;;;41.50;38.00;;;;;14.49;70.68;100994.66;5157417;27;10760;-75
2021/09/23 08:46:50;;;;;;;;;40.00;36.75;;;;;14.34;70.61;100996.19;5157416;27;10727;-74
2021/09/23 08:49:45;;;;;;;;;38.75;35.50;;;;;14.51;69.30;100989.56;5143420;27;11727;-74
2021/09/23 08:52:42;;;;;;;;;48.00;41.50;;;;;14.53;69.62;100992.81;5143308;27;10963;-74
2021/09/23 08:55:38;;;;;;;;;38.50;35.75;;;;;14.78;69.52;100982.44;5144725;27;11053;-74
2021/09/23 08:58:35;;;;;;;;;40.50;36.25;;;;;15.01;67.16;100985.50;5157169;27;10899;-73
2021/09/23 09:01:40;;;;;;;;;31.25;29.50;;;;;15.02;66.66;100987.91;5171036;27;10482;-74
2021/09/23 09:04:36;;;;;;;;;40.00;35.50;;;;;15.30;67.42;100984.31;5177787;27;10148;-74
2021/09/23 09:07:38;;;;;;;;;32.75;31.00;;;;;15.24;65.68;100985.75;5164245;27;10403;-74
2021/09/23 09:10:35;;;;;;;;;29.00;26.00;;;;;15.32;64.45;100975.59;5177842;27;9780;-73
2021/09/23 09:13:37;;;;;;;;;26.25;25.25;;;;;15.40;64.85;100983.00;5164722;27;9779;-74
2021/09/23 09:16:34;;;;;;;;;31.75;31.25;;;;;15.31;64.71;100983.16;5164835;27;9850;-74
2021/09/23 09:19:51;;;;;;;;;28.00;27.25;;;;;15.29;65.19;100986.31;5163521;27;9971;-74
2021/09/23 09:22:46;;;;;;;;;39.25;35.25;;;;;15.10;65.85;100977.78;5177661;27;9978;-74
2021/09/23 09:25:42;;;;;;;;;45.75;36.00;;;;;15.27;65.25;100983.06;5164485;27;10161;-75
2021/09/23 09:28:58;;;;;;;;;35.25;33.25;;;;;15.32;64.98;100989.53;5177674;27;10234;-75
2021/09/23 09:31:54;;;;;;;;;45.00;37.00;;;;;15.30;63.98;100987.13;5163291;27;10227;-74
2021/09/23 09:34:56;;;;;;;;;41.25;36.00;;;;;15.27;65.50;100988.66;5162730;27;10551;-74
2021/09/23 09:37:54;;;;;;;;;44.00;38.25;;;;;15.37;64.12;100992.06;5178071;27;10267;-75
2021/09/23 09:40:55;;;;;;;;;50.75;39.50;;;;;15.76;64.18;100993.97;5163498;27;10329;-74
2021/09/23 09:43:51;;;;;;;;;50.25;39.50;;;;;15.92;62.32;100993.97;5177396;27;11169;-75
2021/09/23 09:46:52;;;;;;;;;53.75;43.00;;;;;15.99;62.24;100990.56;5163209;27;10485;-76
2021/09/23 09:49:48;;;;;;;;;33.75;28.75;;;;;15.94;60.57;100997.19;5177081;27;10811;-76
2021/09/23 09:53:05;;;;;;;;;37.00;33.25;;;;;16.21;61.93;100995.50;5176765;27;10017;-75
2021/09/23 09:56:02;;;;;;;;;25.67;24.00;;;;;16.23;59.39;100998.72;5176730;27;10014;-76
2021/09/23 09:59:26;;;;;;;;;32.75;32.25;;;;;16.11;60.53;101001.63;5163567;27;9438;-76
2021/09/23 10:02:22;;;;;;;;;29.50;27.00;;;;;16.20;57.94;101004.22;5177009;27;10020;-76
2021/09/23 10:05:19;;;;;;;;;30.75;29.00;;;;;16.00;60.43;101001.34;5176975;27;9567;-76
2021/09/23 10:08:16;;;;;;;;;31.50;31.50;;;;;15.89;60.25;100994.69;5177027;27;9572;-75
2021/09/23 10:11:12;;;;;;;;;35.00;33.75;;;;;15.98;60.34;100998.13;5176534;27;9885;-75
2021/09/23 10:14:09;;;;;;;;;49.00;40.75;;;;;15.90;59.79;100998.28;5162808;27;10158;-75
2021/09/23 10:17:05;;;;;;;;;43.75;36.25;;;;;15.67;59.29;101001.69;5177247;27;10540;-76
2021/09/23 10:20:05;;;;;;;;;70.25;54.25;;;;;15.57;59.25;101005.78;5176401;27;11185;-76
2021/09/23 10:23:01;;;;;;;;;67.50;53.25;;;;;15.60;59.51;100998.69;5176407;27;11434;-75
2021/09/23 10:25:59;;;;;;;;;75.50;61.75;;;;;15.70;61.95;101000.16;5176066;27;12199;-76
2021/09/23 10:28:56;;;;;;;;;75.75;60.00;;;;;15.64;58.99;101001.59;5162277;27;11530;-75
2021/09/23 10:31:57;;;;;;;;;72.00;56.50;;;;;15.51;58.33;100998.03;5176190;27;11484;-76
2021/09/23 10:34:53;;;;;;;;;70.50;57.50;;;;;15.44;58.74;101006.22;5162253;27;11447;-75
2021/09/23 10:37:56;;;;;;;;;72.25;56.50;;;;;15.57;58.79;101008.59;5176306;27;11418;-75
2021/09/23 10:40:53;;;;;;;;;70.75;56.25;;;;;15.53;59.26;101002.09;5176063;27;11412;-75
2021/09/23 10:43:49;;;;;;;;;50.75;43.50;;;;;15.62;59.53;101003.94;5176320;27;11460;-75
2021/09/23 10:46:45;;;;;;;;;30.00;27.00;;;;;15.57;59.41;101002.19;5175656;27;10871;-75
2021/09/23 10:49:42;;;;;;;;;31.25;31.25;;;;;15.64;58.36;101001.59;5175965;27;10327;-75
2021/09/23 10:52:41;;;;;;;;;19.00;18.00;;;;;15.76;57.65;101005.13;5175253;27;10373;-75
2021/09/23 10:55:38;;;;;;;;;16.00;16.00;;;;;15.41;56.97;101002.16;5159862;27;10648;-75
2021/09/23 10:58:35;;;;;;;;;14.50;14.50;;;;;15.54;57.86;101008.47;5165837;27;9525;-75
2021/09/23 11:01:36;;;;;;;;;11.00;11.00;;;;;15.51;59.20;101015.59;5175815;27;9415;-76
2021/09/23 11:04:36;;;;;;;;;11.33;11.33;;;;;15.65;59.16;101012.41;5141172;27;9493;-75
2021/09/23 11:07:33;;;;;;;;;11.33;11.33;;;;;15.36;58.43;101008.00;5154698;27;9376;-75
2021/09/23 11:10:28;;;;;;;;;14.33;14.33;;;;;15.57;58.38;101005.00;5154740;27;9367;-76
2021/09/23 11:13:24;;;;;;;;;13.00;12.50;;;;;15.53;58.41;101006.84;5156964;27;9342;-74
2021/09/23 11:16:21;;;;;;;;;11.00;11.00;;;;;15.55;59.26;101004.50;5166450;27;9445;-76
2021/09/23 11:19:20;;;;;;;;;12.00;12.00;;;;;15.57;59.30;101011.38;5169781;27;9373;-75
2021/09/23 11:22:17;;;;;;;;;14.50;14.50;;;;;15.61;59.02;101010.66;5153439;27;9513;-75
2021/09/23 11:25:20;;;;;;;;;18.75;17.75;;;;;15.56;57.15;101015.34;5157570;27;9419;-75
2021/09/23 11:28:18;;;;;;;;;21.75;21.75;;;;;15.42;57.48;101016.91;5171532;27;9580;-77
2021/09/23 11:31:14;;;;;;;;;21.00;21.00;;;;;15.52;57.68;101021.97;5142981;27;9667;-75
2021/09/23 11:34:09;;;;;;;;;12.50;12.50;;;;;15.38;55.41;101018.78;5154307;27;9520;-76
2021/09/23 11:37:08;;;;;;;;;11.33;11.33;;;;;15.34;54.66;101020.66;5140899;27;9445;-75
2021/09/23 11:40:06;;;;;;;;;10.33;10.33;;;;;15.29;56.48;101019.75;5167796;27;9434;-76
2021/09/23 11:43:04;;;;;;;;;11.00;11.00;;;;;15.44;56.39;101028.50;5175031;27;10092;-76
2021/09/23 11:46:00;;;;;;;;;13.00;13.00;;;;;15.52;57.56;101024.75;5174241;27;9351;-75
2021/09/23 11:48:59;;;;;;;;;11.33;11.33;;;;;15.42;58.63;101022.47;5150656;27;9176;-76
2021/09/23 11:51:56;;;;;;;;;14.00;14.00;;;;;15.51;58.62;101020.34;5175149;27;9299;-75
2021/09/23 11:54:51;;;;;;;;;6.00;6.00;;;;;15.44;58.68;101028.50;5159213;27;9433;-75
2021/09/23 11:57:47;;;;;;;;;8.75;8.75;;;;;15.46;59.52;101031.75;5170860;27;9521;-75
2021/09/23 12:00:46;;;;;;;;;7.67;7.67;;;;;15.24;59.86;101025.56;5164696;27;9496;-75
2021/09/23 12:03:45;;;;;;;;;16.33;15.00;;;;;15.32;61.49;101020.19;5162385;27;9298;-74
2021/09/23 12:06:41;;;;;;;;;14.50;14.50;;;;;15.41;61.29;101027.25;5162543;27;9360;-76
2021/09/23 12:09:37;;;;;;;;;18.00;18.00;;;;;15.29;61.57;101030.88;5165110;27;9677;-74
2021/09/23 12:12:32;;;;;;;;;15.50;15.50;;;;;15.20;61.74;101033.03;5150567;27;9563;-74
2021/09/23 12:15:30;;;;;;;;;14.00;13.25;;;;;15.27;62.50;101029.63;5162812;27;9521;-74
2021/09/23 12:18:28;;;;;;;;;11.67;11.67;;;;;15.24;62.14;101033.09;5146340;27;9632;-74
2021/09/23 12:21:25;;;;;;;;;13.50;13.50;;;;;15.20;61.78;101035.00;5152538;27;9502;-76
2021/09/23 12:24:39;;;;;;;;;11.50;11.50;;;;;15.12;61.48;101038.75;5162240;27;9491;-74
2021/09/23 12:27:37;;;;;;;;;13.25;13.25;;;;;14.99;63.25;101030.41;5163477;27;9531;-75
2021/09/23 12:30:35;;;;;;;;;14.00;14.00;;;;;15.19;62.98;101031.41;5152487;27;9564;-75
2021/09/23 12:33:32;;;;;;;;;12.25;12.25;;;;;15.15;61.98;101038.03;5149931;27;9518;-75
2021/09/23 12:36:42;;;;;;;;;16.50;16.50;;;;;15.05;62.21;101039.34;5162171;27;9589;-75
2021/09/23 12:39:47;;;;;;;;;11.75;11.75;;;;;15.05;62.92;101039.34;5161648;27;9637;-75
2021/09/23 12:42:43;;;;;;;;;13.50;13.50;;;;;15.08;62.59;101046.97;5161452;27;9571;-75
2021/09/23 12:45:38;;;;;;;;;17.50;17.50;;;;;14.99;62.96;101041.56;5161589;27;9672;-75
2021/09/23 12:48:34;;;;;;;;;20.50;20.25;;;;;14.94;62.62;101038.19;5161538;27;10487;-76
2021/09/23 12:51:36;;;;;;;;;20.00;20.00;;;;;14.94;62.21;101050.13;5155292;27;9806;-77
2021/09/23 12:54:31;;;;;;;;;13.25;13.00;;;;;14.74;61.25;101043.59;5152310;27;9846;-76
2021/09/23 12:57:28;;;;;;;;;12.00;12.00;;;;;14.68;60.87;101042.19;5156292;27;9547;-76
2021/09/23 13:00:27;;;;;;;;;14.75;14.75;;;;;14.69;61.15;101043.81;5166502;27;9573;-75
2021/09/23 13:03:25;;;;;;;;;19.25;19.25;;;;;14.65;61.08;101042.09;5173830;27;9724;-76
2021/09/23 13:06:27;;;;;;;;;17.75;17.50;;;;;14.71;61.83;101040.66;5143180;27;9919;-76
2021/09/23 13:09:23;;;;;;;;;19.00;19.00;;;;;14.59;62.22;101044.31;5142061;27;10071;-76
2021/09/23 13:12:18;;;;;;;;;18.75;18.75;;;;;14.50;62.47;101042.81;5157175;27;10042;-74
2021/09/23 13:15:43;;;;;;;;;17.25;17.25;;;;;14.53;63.20;101045.69;5154651;27;9924;-75
2021/09/23 13:18:38;;;;;;;;;12.00;12.00;;;;;14.53;63.48;101051.25;5177865;27;9748;-77
2021/09/23 13:21:37;;;;;;;;;16.75;16.75;;;;;14.53;63.33;101044.88;5177165;27;9740;-77
2021/09/23 13:24:32;;;;;;;;;14.50;14.50;;;;;14.44;63.48;101047.75;5163399;27;10024;-76
2021/09/23 13:27:28;;;;;;;;;219.75;209.00;;;;;14.59;67.39;101047.09;5168005;27;9892;-76